createdAt,value
2023-04-23T00:01:18.548Z,8.38
2023-04-23T00:03:46.541Z,8.41
2023-04-23T00:06:14.456Z,8.48
2023-04-23T00:08:42.463Z,8.48
2023-04-23T00:11:10.309Z,8.49
2023-04-23T00:13:37.831Z,8.45
2023-04-23T00:16:05.513Z,8.47
2023-04-23T00:18:32.634Z,8.48
2023-04-23T00:20:59.767Z,8.47
2023-04-23T00:23:28.188Z,8.49
2023-04-23T00:25:55.312Z,8.48
2023-04-23T00:28:22.803Z,8.47
2023-04-23T00:30:49.999Z,8.46
2023-04-23T00:33:17.309Z,8.42
2023-04-23T00:35:44.346Z,8.42
2023-04-23T00:38:11.461Z,8.40
2023-04-23T00:40:38.792Z,8.38
2023-04-23T00:43:07.177Z,8.38
2023-04-23T00:45:34.629Z,8.38
2023-04-23T00:48:02.982Z,8.40
2023-04-23T00:50:30.054Z,8.36
2023-04-23T00:52:57.118Z,8.32
2023-04-23T00:55:24.825Z,8.34
2023-04-23T00:57:52.444Z,8.32
2023-04-23T01:00:20.379Z,8.30
2023-04-23T01:02:49.837Z,8.31
2023-04-23T01:05:18.030Z,8.25
2023-04-23T01:07:46.744Z,8.26
2023-04-23T01:10:14.302Z,8.20
2023-04-23T01:12:41.454Z,8.25
2023-04-23T01:15:09.492Z,8.21
2023-04-23T01:17:37.010Z,8.24
2023-04-23T01:20:06.364Z,8.17
2023-04-23T01:22:37.259Z,8.24
2023-04-23T01:25:04.760Z,8.25
2023-04-23T01:27:33.243Z,8.29
2023-04-23T01:30:01.519Z,8.26
2023-04-23T01:32:28.825Z,8.26
2023-04-23T01:34:56.734Z,8.27
2023-04-23T01:37:25.274Z,8.26
2023-04-23T01:39:53.064Z,8.27
2023-04-23T01:42:20.152Z,8.29
2023-04-23T01:44:47.290Z,8.29
2023-04-23T01:47:14.576Z,8.33
2023-04-23T01:49:41.699Z,8.24
2023-04-23T01:52:08.759Z,8.29
2023-04-23T01:54:35.742Z,8.31
2023-04-23T01:57:03.112Z,8.30
2023-04-23T01:59:30.119Z,8.31
2023-04-23T02:01:57.260Z,8.36
2023-04-23T02:04:24.703Z,8.32
2023-04-23T02:06:52.307Z,8.36
2023-04-23T02:09:19.549Z,8.40
2023-04-23T02:11:46.655Z,8.37
2023-04-23T02:14:13.861Z,8.33
2023-04-23T02:16:40.958Z,8.33
2023-04-23T02:19:07.933Z,8.37
2023-04-23T02:21:35.006Z,8.35
2023-04-23T02:24:02.195Z,8.36
2023-04-23T02:26:29.682Z,8.38
2023-04-23T02:28:56.771Z,8.40
2023-04-23T02:31:24.262Z,8.40
2023-04-23T02:33:51.951Z,8.42
2023-04-23T02:36:19.626Z,8.48
2023-04-23T02:38:48.623Z,8.48
2023-04-23T02:41:15.752Z,8.51
2023-04-23T02:43:42.830Z,8.51
2023-04-23T02:46:10.023Z,8.47
2023-04-23T02:48:39.274Z,8.56
2023-04-23T02:51:07.552Z,8.58
2023-04-23T02:53:34.672Z,8.58
2023-04-23T02:56:02.486Z,8.59
2023-04-23T02:58:30.370Z,8.64
2023-04-23T03:00:57.834Z,8.65
2023-04-23T03:03:27.021Z,8.66
2023-04-23T03:05:55.260Z,8.68
2023-04-23T03:08:22.608Z,8.65
2023-04-23T03:10:49.766Z,8.72
2023-04-23T03:13:16.993Z,8.71
2023-04-23T03:15:44.209Z,8.78
2023-04-23T03:18:11.401Z,8.75
2023-04-23T03:20:38.564Z,8.76
2023-04-23T03:23:06.485Z,8.74
2023-04-23T03:25:34.286Z,8.84
2023-04-23T03:28:01.559Z,8.84
2023-04-23T03:30:30.245Z,8.85
2023-04-23T03:32:57.928Z,8.87
2023-04-23T03:35:26.300Z,8.85
2023-04-23T03:37:53.895Z,8.87
2023-04-23T03:40:21.324Z,8.84
2023-04-23T03:42:48.452Z,8.85
2023-04-23T03:45:16.923Z,8.84
2023-04-23T03:47:44.183Z,8.83
2023-04-23T03:50:13.312Z,8.81
2023-04-23T03:52:41.036Z,8.80
2023-04-23T03:55:08.680Z,8.83
2023-04-23T03:57:36.695Z,8.80
2023-04-23T04:00:08.241Z,8.80
2023-04-23T04:02:35.870Z,8.81
2023-04-23T04:05:03.252Z,8.73
2023-04-23T04:07:30.583Z,8.80
2023-04-23T04:09:57.718Z,8.78
2023-04-23T04:12:24.784Z,8.73
2023-04-23T04:14:52.421Z,8.76
2023-04-23T04:17:19.464Z,8.73
2023-04-23T04:19:46.470Z,8.68
2023-04-23T04:22:13.585Z,8.68
2023-04-23T04:24:41.880Z,8.69
2023-04-23T04:27:09.511Z,8.71
2023-04-23T04:29:37.024Z,8.70
2023-04-23T04:32:05.316Z,8.64
2023-04-23T04:34:33.047Z,8.64
2023-04-23T04:37:00.829Z,8.65
2023-04-23T04:39:27.971Z,8.65
2023-04-23T04:41:55.308Z,8.63
2023-04-23T04:44:26.467Z,8.67
2023-04-23T04:46:53.699Z,8.66
2023-04-23T04:49:22.414Z,8.68
2023-04-23T04:51:49.470Z,8.67
2023-04-23T04:54:16.538Z,8.66
2023-04-23T04:56:43.592Z,8.60
2023-04-23T04:59:10.865Z,8.59
2023-04-23T05:01:38.393Z,8.61
2023-04-23T05:04:06.230Z,8.60
2023-04-23T05:06:33.530Z,8.59
2023-04-23T05:09:00.701Z,8.62
2023-04-23T05:11:27.778Z,8.61
2023-04-23T05:13:54.861Z,8.63
2023-04-23T05:16:22.511Z,8.68
2023-04-23T05:18:49.703Z,8.62
2023-04-23T05:21:16.909Z,8.66
2023-04-23T05:23:44.037Z,8.67
2023-04-23T05:26:11.236Z,8.66
2023-04-23T05:28:38.335Z,8.72
2023-04-23T05:31:05.417Z,8.80
2023-04-23T05:33:39.174Z,8.81
2023-04-23T05:36:13.731Z,8.80
2023-04-23T05:38:40.812Z,8.85
2023-04-23T05:41:07.912Z,8.85
2023-04-23T05:43:34.982Z,8.99
2023-04-23T05:46:04.434Z,9.03
2023-04-23T05:48:31.688Z,9.14
2023-04-23T05:50:59.071Z,9.22
2023-04-23T05:53:27.647Z,9.32
2023-04-23T05:55:54.776Z,9.41
2023-04-23T05:58:22.541Z,9.50
2023-04-23T06:00:50.202Z,9.61
2023-04-23T06:03:17.531Z,9.73
2023-04-23T06:05:45.432Z,9.73
2023-04-23T06:08:12.520Z,9.85
2023-04-23T06:10:39.582Z,9.98
2023-04-23T06:13:06.680Z,10.03
2023-04-23T06:15:33.880Z,10.10
2023-04-23T06:18:01.318Z,10.26
2023-04-23T06:20:28.991Z,10.35
2023-04-23T06:22:56.343Z,10.37
2023-04-23T06:25:23.645Z,10.46
2023-04-23T06:27:50.675Z,10.60
2023-04-23T06:30:17.711Z,10.71
2023-04-23T06:32:45.086Z,10.81
2023-04-23T06:35:12.420Z,10.84
2023-04-23T06:37:39.435Z,11.02
2023-04-23T06:40:07.058Z,11.11
2023-04-23T06:42:34.068Z,11.19
2023-04-23T06:45:06.219Z,11.31
2023-04-23T06:47:33.428Z,11.36
2023-04-23T06:50:00.637Z,11.53
2023-04-23T06:52:27.681Z,11.63
2023-04-23T06:54:54.849Z,11.81
2023-04-23T06:57:22.527Z,11.88
2023-04-23T06:59:49.611Z,12.00
2023-04-23T07:02:16.756Z,11.99
2023-04-23T07:04:44.465Z,12.15
2023-04-23T07:07:12.324Z,12.25
2023-04-23T07:09:39.360Z,12.42
2023-04-23T07:12:06.484Z,12.54
2023-04-23T07:14:33.572Z,12.64
2023-04-23T07:17:00.707Z,12.74
2023-04-23T07:19:27.944Z,12.87
2023-04-23T07:21:55.145Z,12.92
2023-04-23T07:24:22.809Z,13.08
2023-04-23T07:26:49.898Z,13.24
2023-04-23T07:29:16.923Z,13.32
2023-04-23T07:31:44.634Z,13.34
2023-04-23T07:34:11.968Z,13.28
2023-04-23T07:36:39.010Z,13.33
2023-04-23T07:39:06.664Z,13.42
2023-04-23T07:41:33.815Z,13.53
2023-04-23T07:44:01.336Z,13.67
2023-04-23T07:46:28.468Z,13.80
2023-04-23T07:48:55.693Z,13.85
2023-04-23T07:51:26.590Z,13.92
2023-04-23T07:53:58.032Z,13.99
2023-04-23T07:56:25.073Z,14.16
2023-04-23T07:58:53.907Z,14.22
2023-04-23T08:01:22.673Z,14.27
2023-04-23T08:03:49.806Z,14.06
2023-04-23T08:06:18.262Z,14.13
2023-04-23T08:08:45.286Z,14.41
2023-04-23T08:11:12.275Z,14.52
2023-04-23T08:13:39.313Z,14.60
2023-04-23T08:16:07.117Z,14.66
2023-04-23T08:18:35.251Z,14.67
2023-04-23T08:21:02.333Z,14.87
2023-04-23T08:23:29.482Z,14.97
2023-04-23T08:25:56.508Z,14.97
2023-04-23T08:28:23.629Z,14.85
2023-04-23T08:30:50.781Z,14.88
2023-04-23T08:33:17.828Z,15.04
2023-04-23T08:35:45.297Z,15.17
2023-04-23T08:38:12.378Z,15.22
2023-04-23T08:40:42.574Z,15.14
2023-04-23T08:43:31.571Z,15.36
2023-04-23T08:46:04.281Z,15.47
2023-04-23T08:48:34.254Z,15.61
2023-04-23T08:51:02.785Z,15.74
2023-04-23T08:53:32.580Z,15.87
2023-04-23T08:56:00.724Z,15.79
2023-04-23T08:58:28.135Z,15.71
2023-04-23T09:00:57.974Z,15.81
2023-04-23T09:03:26.211Z,15.83
2023-04-23T09:05:54.165Z,15.95
2023-04-23T09:08:23.740Z,16.15
2023-04-23T09:10:52.392Z,16.27
2023-04-23T09:13:19.614Z,16.49
2023-04-23T09:15:46.819Z,16.55
2023-04-23T09:18:13.989Z,16.61
2023-04-23T09:20:41.729Z,16.58
2023-04-23T09:23:09.062Z,16.70
2023-04-23T09:25:36.951Z,16.65
2023-04-23T09:28:07.607Z,16.76
2023-04-23T09:30:45.189Z,16.67
2023-04-23T09:33:13.911Z,16.66
2023-04-23T09:35:43.092Z,16.72
2023-04-23T09:38:10.680Z,16.87
2023-04-23T09:40:38.729Z,17.03
2023-04-23T09:43:07.559Z,16.95
2023-04-23T09:45:35.550Z,16.99
2023-04-23T09:48:02.855Z,16.99
2023-04-23T09:50:33.893Z,16.99
2023-04-23T09:53:01.345Z,17.00
2023-04-23T09:55:35.736Z,17.13
2023-04-23T09:58:04.604Z,17.12
2023-04-23T10:00:36.662Z,17.13
2023-04-23T10:03:04.911Z,17.23
2023-04-23T10:05:41.048Z,17.15
2023-04-23T10:08:19.652Z,16.92
2023-04-23T10:10:59.957Z,17.11
2023-04-23T10:13:30.646Z,17.27
2023-04-23T10:16:10.130Z,17.14
2023-04-23T10:18:46.927Z,17.16
2023-04-23T10:21:15.333Z,17.37
2023-04-23T10:23:44.471Z,17.53
2023-04-23T10:26:16.371Z,17.51
2023-04-23T10:28:48.149Z,17.49
2023-04-23T10:31:16.321Z,17.46
2023-04-23T10:33:55.832Z,17.37
2023-04-23T10:36:25.895Z,17.51
2023-04-23T10:38:58.269Z,17.59
2023-04-23T10:41:29.304Z,17.64
2023-04-23T10:43:57.638Z,17.72
2023-04-23T10:46:29.087Z,17.60
2023-04-23T10:49:07.896Z,17.39
2023-04-23T10:54:08.234Z,17.19
2023-04-23T10:56:35.851Z,17.20
2023-04-23T10:59:05.676Z,17.15
2023-04-23T11:01:32.826Z,17.09
2023-04-23T11:04:00.799Z,17.21
2023-04-23T11:07:08.063Z,17.25
2023-04-23T11:09:35.140Z,17.40
2023-04-23T11:12:03.074Z,17.49
2023-04-23T11:14:41.931Z,17.59
2023-04-23T11:17:12.505Z,17.56
2023-04-23T11:19:41.407Z,17.57
2023-04-23T11:22:16.636Z,17.61
2023-04-23T11:24:45.210Z,17.68
2023-04-23T11:27:15.086Z,17.64
2023-04-23T11:29:45.277Z,17.71
2023-04-23T11:32:16.047Z,17.84
2023-04-23T11:34:44.989Z,17.92
2023-04-23T11:37:15.095Z,17.85
2023-04-23T11:39:44.128Z,17.90
2023-04-23T11:42:13.239Z,18.21
2023-04-23T11:44:47.919Z,18.12
2023-04-23T11:47:16.805Z,18.07
2023-04-23T11:49:45.496Z,18.04
2023-04-23T11:52:14.389Z,18.26
2023-04-23T11:54:42.304Z,18.31
2023-04-23T11:57:10.359Z,18.25
2023-04-23T11:59:37.736Z,18.29
2023-04-23T12:02:05.160Z,18.29
2023-04-23T12:04:33.512Z,18.12
2023-04-23T12:07:12.777Z,18.10
2023-04-23T12:09:46.537Z,18.02
2023-04-23T12:12:15.182Z,17.99
2023-04-23T12:14:42.285Z,17.96
2023-04-23T12:17:10.784Z,17.96
2023-04-23T12:19:40.567Z,17.92
2023-04-23T12:22:08.654Z,18.04
2023-04-23T12:24:51.694Z,18.13
2023-04-23T12:27:21.357Z,18.02
2023-04-23T12:29:49.221Z,18.15
2023-04-23T12:32:16.311Z,18.25
2023-04-23T12:34:54.910Z,18.27
2023-04-23T12:37:26.907Z,18.27
2023-04-23T12:39:56.402Z,18.24
2023-04-23T12:42:24.283Z,18.03
2023-04-23T12:44:52.814Z,18.14
2023-04-23T12:47:19.932Z,18.00
2023-04-23T12:49:49.476Z,17.94
2023-04-23T12:52:16.632Z,17.93
2023-04-23T12:54:45.006Z,17.90
2023-04-23T12:57:13.026Z,18.00
2023-04-23T12:59:40.226Z,18.25
2023-04-23T13:02:08.019Z,18.48
2023-04-23T13:04:36.587Z,18.62
2023-04-23T13:07:04.520Z,18.75
2023-04-23T13:09:31.610Z,18.43
2023-04-23T13:11:59.917Z,18.07
2023-04-23T13:14:27.917Z,18.03
2023-04-23T13:16:55.114Z,18.01
2023-04-23T13:19:22.706Z,17.87
2023-04-23T13:21:50.035Z,17.86
2023-04-23T13:24:17.123Z,17.92
2023-04-23T13:26:44.215Z,17.86
2023-04-23T13:29:11.796Z,17.78
2023-04-23T13:31:38.795Z,17.82
2023-04-23T13:34:05.935Z,17.71
2023-04-23T13:36:33.013Z,17.71
2023-04-23T13:38:59.987Z,17.53
2023-04-23T13:41:27.108Z,17.50
2023-04-23T13:43:54.183Z,17.60
2023-04-23T13:46:21.331Z,17.72
2023-04-23T13:48:48.492Z,17.81
2023-04-23T13:51:33.074Z,17.81
2023-04-23T13:54:01.983Z,17.88
2023-04-23T13:56:30.601Z,17.90
2023-04-23T13:59:18.833Z,17.81
2023-04-23T14:01:49.876Z,17.77
2023-04-23T14:04:18.622Z,17.59
2023-04-23T14:06:46.578Z,17.45
2023-04-23T14:09:13.752Z,17.32
2023-04-23T14:11:41.411Z,17.40
2023-04-23T14:14:08.810Z,17.60
2023-04-23T14:16:36.223Z,17.79
2023-04-23T14:19:03.248Z,17.82
2023-04-23T14:21:30.547Z,17.75
2023-04-23T14:24:24.582Z,17.62
2023-04-23T14:26:51.608Z,17.50
2023-04-23T14:29:54.943Z,17.25
2023-04-23T14:32:23.187Z,17.17
2023-04-23T14:34:51.164Z,17.14
2023-04-23T14:37:18.477Z,17.13
2023-04-23T14:39:46.842Z,17.17
2023-04-23T14:42:14.004Z,17.09
2023-04-23T14:44:41.082Z,17.12
2023-04-23T14:47:10.114Z,17.07
2023-04-23T14:49:37.304Z,17.04
2023-04-23T14:52:04.416Z,17.03
2023-04-23T14:54:31.387Z,16.99
2023-04-23T14:56:58.432Z,16.86
2023-04-23T14:59:25.552Z,16.78
2023-04-23T15:01:56.822Z,16.66
2023-04-23T15:04:24.201Z,16.35
2023-04-23T15:06:51.320Z,16.12
2023-04-23T15:09:18.396Z,15.91
2023-04-23T15:11:46.350Z,15.57
2023-04-23T15:14:19.650Z,15.31
2023-04-23T15:16:49.324Z,14.89
2023-04-23T15:19:18.585Z,14.12
2023-04-23T15:21:47.224Z,13.80
2023-04-23T15:24:15.274Z,13.62
2023-04-23T15:26:42.850Z,13.42
2023-04-23T15:29:10.254Z,13.39
2023-04-23T15:31:38.337Z,13.25
2023-04-23T15:34:07.129Z,13.04
2023-04-23T15:36:35.552Z,12.82
2023-04-23T15:39:02.902Z,12.79
2023-04-23T15:41:30.075Z,12.51
2023-04-23T15:43:57.140Z,12.55
2023-04-23T15:46:24.235Z,12.47
2023-04-23T15:48:51.300Z,12.56
2023-04-23T15:51:18.327Z,12.48
2023-04-23T15:53:45.970Z,12.49
2023-04-23T15:56:13.487Z,12.57
2023-04-23T15:58:40.627Z,12.57
2023-04-23T16:01:09.746Z,12.60
2023-04-23T16:03:37.286Z,12.64
2023-04-23T16:06:05.116Z,12.66
2023-04-23T16:08:32.640Z,12.75
2023-04-23T16:10:59.810Z,12.51
2023-04-23T16:13:28.804Z,12.44
2023-04-23T16:15:56.133Z,12.42
2023-04-23T16:18:25.171Z,12.45
2023-04-23T16:20:52.863Z,12.41
2023-04-23T16:23:21.012Z,12.41
2023-04-23T16:25:48.401Z,12.42
2023-04-23T16:28:15.985Z,12.38
2023-04-23T16:30:43.035Z,12.38
2023-04-23T16:33:10.352Z,12.37
2023-04-23T16:35:37.922Z,12.30
2023-04-23T16:38:05.093Z,12.26
2023-04-23T16:40:32.289Z,12.34
2023-04-23T16:42:59.383Z,12.40
2023-04-23T16:45:26.485Z,12.38
2023-04-23T16:47:54.168Z,12.35
2023-04-23T16:50:21.206Z,12.34
2023-04-23T16:52:48.244Z,12.37
2023-04-23T16:55:15.499Z,12.42
2023-04-23T16:57:43.016Z,12.34
2023-04-23T17:00:11.855Z,12.32
2023-04-23T17:02:41.270Z,12.26
2023-04-23T17:05:10.037Z,12.32
2023-04-23T17:07:37.214Z,12.23
2023-04-23T17:10:04.488Z,12.28
2023-04-23T17:12:31.485Z,12.32
2023-04-23T17:14:58.582Z,12.33
2023-04-23T17:17:25.681Z,12.29
2023-04-23T17:19:53.565Z,12.27
2023-04-23T17:22:20.833Z,12.27
2023-04-23T17:24:48.048Z,12.30
2023-04-23T17:27:15.219Z,12.30
2023-04-23T17:29:42.292Z,12.33
2023-04-23T17:32:09.360Z,12.33
2023-04-23T17:34:36.476Z,12.25
2023-04-23T17:37:03.535Z,12.33
2023-04-23T17:39:30.517Z,12.36
2023-04-23T17:41:57.608Z,12.37
2023-04-23T17:44:24.814Z,12.36
2023-04-23T17:46:55.091Z,12.29
2023-04-23T17:49:23.892Z,12.34
2023-04-23T17:51:50.938Z,12.28
2023-04-23T17:54:18.168Z,12.25
2023-04-23T17:56:45.342Z,12.29
2023-04-23T17:59:12.451Z,12.25
2023-04-23T18:01:39.662Z,12.30
2023-04-23T18:04:07.081Z,12.30
2023-04-23T18:06:36.004Z,12.22
2023-04-23T18:09:03.396Z,12.27
2023-04-23T18:11:30.506Z,12.25
2023-04-23T18:13:57.824Z,12.25
2023-04-23T18:16:25.239Z,12.27
2023-04-23T18:18:52.836Z,12.24
2023-04-23T18:21:19.936Z,12.15
2023-04-23T18:23:47.350Z,12.18
2023-04-23T18:26:14.487Z,12.16
2023-04-23T18:28:42.181Z,12.12
2023-04-23T18:31:09.633Z,12.08
2023-04-23T18:33:41.676Z,12.02
2023-04-23T18:36:24.508Z,12.00
2023-04-23T18:38:52.361Z,11.94
2023-04-23T18:41:19.330Z,11.93
2023-04-23T18:43:46.740Z,11.95
2023-04-23T18:46:14.009Z,11.99
2023-04-23T18:49:06.986Z,11.98
2023-04-23T18:51:43.604Z,11.98
2023-04-23T18:54:17.322Z,11.93
2023-04-23T18:56:47.439Z,11.97
2023-04-23T18:59:14.391Z,11.91
2023-04-23T19:01:43.123Z,11.92
2023-04-23T19:04:10.500Z,11.92
2023-04-23T19:06:38.182Z,11.88
2023-04-23T19:09:05.365Z,11.95
2023-04-23T19:11:35.159Z,11.96
2023-04-23T19:14:02.182Z,11.98
2023-04-23T19:16:29.469Z,11.97
2023-04-23T19:18:56.623Z,11.95
2023-04-23T19:21:24.182Z,11.91
2023-04-23T19:23:53.579Z,11.90
2023-04-23T19:26:20.883Z,11.88
2023-04-23T19:28:48.019Z,11.89
2023-04-23T19:31:15.304Z,11.92
2023-04-23T19:33:45.362Z,11.87
2023-04-23T19:36:12.414Z,11.92
2023-04-23T19:38:39.428Z,11.91
2023-04-23T19:41:07.716Z,11.93
2023-04-23T19:43:34.815Z,11.93
2023-04-23T19:46:01.989Z,11.89
2023-04-23T19:48:29.110Z,11.93
2023-04-23T19:50:56.226Z,11.98
2023-04-23T19:53:24.218Z,11.88
2023-04-23T19:55:51.854Z,11.83
2023-04-23T19:58:19.461Z,11.86
2023-04-23T20:00:46.625Z,11.86
2023-04-23T20:03:14.969Z,11.85
2023-04-23T20:05:45.116Z,11.81
2023-04-23T20:08:25.232Z,11.86
2023-04-23T20:10:53.722Z,11.85
2023-04-23T20:13:21.129Z,11.79
2023-04-23T20:15:50.107Z,11.82
2023-04-23T20:18:18.317Z,11.82
2023-04-23T20:20:46.104Z,11.84
2023-04-23T20:23:13.127Z,11.83
2023-04-23T20:25:40.541Z,11.82
2023-04-23T20:28:09.968Z,11.80
2023-04-23T20:30:37.064Z,11.89
2023-04-23T20:33:04.339Z,11.89
2023-04-23T20:35:31.538Z,11.92
2023-04-23T20:37:58.628Z,11.90
2023-04-23T20:40:26.029Z,11.80
2023-04-23T20:42:54.424Z,11.75
2023-04-23T20:45:23.103Z,11.83
2023-04-23T20:47:51.827Z,11.86
2023-04-23T20:50:19.222Z,11.86
2023-04-23T20:52:46.395Z,11.84
2023-04-23T20:55:13.437Z,11.92
2023-04-23T20:57:41.214Z,11.95
2023-04-23T21:00:11.637Z,11.99
2023-04-23T21:02:39.109Z,11.98
2023-04-23T21:05:07.673Z,11.97
2023-04-23T21:07:36.653Z,11.94
2023-04-23T21:10:04.624Z,11.92
2023-04-23T21:12:32.191Z,11.86
2023-04-23T21:14:59.311Z,11.82
2023-04-23T21:17:26.504Z,11.81
2023-04-23T21:19:53.877Z,11.71
2023-04-23T21:22:21.090Z,11.66
2023-04-23T21:24:48.146Z,11.63
2023-04-23T21:27:22.273Z,11.45
2023-04-23T21:29:49.577Z,11.51
2023-04-23T21:32:16.850Z,11.51
2023-04-23T21:34:43.981Z,11.51
2023-04-23T21:37:11.057Z,11.48
2023-04-23T21:39:38.099Z,11.43
2023-04-23T21:42:05.308Z,11.43
2023-04-23T21:44:32.836Z,11.35
2023-04-23T21:46:59.966Z,11.33
2023-04-23T21:49:27.743Z,11.26
2023-04-23T21:51:55.987Z,11.16
2023-04-23T21:54:25.913Z,11.16
2023-04-23T21:56:53.507Z,11.15
2023-04-23T21:59:20.785Z,11.05
2023-04-23T22:01:47.835Z,11.04
2023-04-23T22:04:15.662Z,10.99
2023-04-23T22:06:44.426Z,10.99
2023-04-23T22:09:12.944Z,10.89
2023-04-23T22:11:44.208Z,10.99
2023-04-23T22:14:16.497Z,10.94
2023-04-23T22:16:43.520Z,10.91
2023-04-23T22:19:10.584Z,10.88
2023-04-23T22:21:37.663Z,10.90
2023-04-23T22:24:05.989Z,10.91
2023-04-23T22:26:33.986Z,10.93
2023-04-23T22:29:01.541Z,10.90
2023-04-23T22:31:28.659Z,10.91
2023-04-23T22:33:55.848Z,10.85
2023-04-23T22:36:25.248Z,10.84
2023-04-23T22:38:53.356Z,10.83
2023-04-23T22:41:20.845Z,10.83
2023-04-23T22:43:47.999Z,10.80
2023-04-23T22:46:15.705Z,10.66
2023-04-23T22:48:44.975Z,10.73
2023-04-23T22:51:12.425Z,10.71
2023-04-23T22:53:40.177Z,10.65
2023-04-23T22:56:07.566Z,10.69
2023-04-23T22:58:34.638Z,10.68
2023-04-23T23:01:01.881Z,10.68
2023-04-23T23:03:29.139Z,10.61
2023-04-23T23:05:56.310Z,10.68
2023-04-23T23:08:23.931Z,10.65
2023-04-23T23:10:50.966Z,10.44
2023-04-23T23:13:18.125Z,10.21
2023-04-23T23:15:45.514Z,10.18
2023-04-23T23:18:12.596Z,10.11
2023-04-23T23:20:41.044Z,10.07
2023-04-23T23:23:08.066Z,9.81
2023-04-23T23:25:38.264Z,9.92
2023-04-23T23:28:05.323Z,9.66
2023-04-23T23:30:32.467Z,9.69
2023-04-23T23:32:59.695Z,9.48
2023-04-23T23:35:26.812Z,9.57
2023-04-23T23:37:54.061Z,9.60
2023-04-23T23:40:21.090Z,9.58
2023-04-23T23:42:48.148Z,9.62
2023-04-23T23:45:15.437Z,9.61
